Fernwood, Washington
Current Conditions -  °F | °C
As of 10:55 PM on Saturday 25 Oct 2014 (Local Time) from KPWT Reporting Station
Clear Clear  
Wind Chill: 50°   Ceiling: Unl
Heat Index: 50°   Visibility: 10mi
Dew Point: 46°   Wind: 23mph
Humidity: 87%   Direction: 200°SSW
Pressure: 29.69"   Gusts: 29mph
Location:  47.5378°N, 122.589°W
Report Text: KPWT 260555Z AUTO 20020G25KT 10SM CLR 10/08 A2969 RMK AO1 60022 10140 20100 52095
Loading
Personal Weather Stations






























Interactive Weather Map
Tropical Storm Tracking
New forecast layout! Learn more

10-Day Weather Forecast

Advertisements
Track Severe Weather on mobile